Terminal Aerodrome Forecast
Issued by NWS Sterling, VA

Current Version | Previous Version | Text Only | Print | Product List | Glossary Off
Versions: 1 2 3 4 5 6 7 8 9 10 11 12

000
FTUS41 KLWX 300500
TAFMRB
TAF
KMRB 300524Z 3006/3106 16004KT P6SM SKC
     FM301700 24006KT P6SM BKN050
     FM302300 30004KT P6SM SCT050
     FM310100 VRB03KT P6SM BKN050
     FM310300 00000KT P6SM SCT090=

USA.gov is the U.S. government's official web portal to all federal, state and local government web resources and services.